KR-0449 weather

Southern Central Care Hospital Heliport
Busan, Busan Gwang'yeogsi, South Korea

Public forecast

Using degrees Celsius for public forecast. Weather courtesy of forecast.io.

Closest aviation weather report (METAR) to Southern Central Care Hospital Heliport

Closest report is Gimhae International Airport, 6.7 nm (12.4 km) NW. Retrieved 2020/07/10 10:00 UTC (29 minutes ago):

RKPK 101000Z 16007KT 9999 FEW015 BKN050 25/22 Q1000

Closest aviation forecast (TAF) to Southern Central Care Hospital Heliport

Closest forecast is Gimhae International Airport, 6.7 nm (12.4 km) NW. Retrieved 2020/07/10 06:00 UTC (4 hours ago):

TAF RKPK 100500Z 1006/1112 09006KT 4800 BR BKN015 OVC030 TN22/1021Z TX27/1106Z BECMG 1007/1008 9999 NSW BECMG 1100/1101 BKN030